Time;durP1;ratioP1;P1;durP2;ratioP2;P2;SDS_P1;SDS_P2;PMS_P1;PMS_P2;Temp;Humidity;BMP_temperature;BMP_pressure;BME280_temperature;BME280_humidity;BME280_pressure;Samples;Min_cycle;Max_cycle;Signal;HPM_P1;HPM_P2
2022/04/09 00:00:07;;;;;;;9.57;2.42;;;4.70;99.90;;;;;;5016188;28;20022;-79
2022/04/09 00:02:33;;;;;;;9.18;1.92;;;4.60;99.90;;;;;;4999647;28;20482;-78
2022/04/09 00:04:58;;;;;;;9.25;2.67;;;4.60;99.90;;;;;;5018012;28;20029;-78
2022/04/09 00:07:24;;;;;;;10.82;2.03;;;4.50;99.90;;;;;;4998791;28;20029;-77
2022/04/09 00:09:50;;;;;;;6.47;1.80;;;4.50;99.90;;;;;;5015780;28;20110;-78
2022/04/09 00:12:15;;;;;;;12.25;2.67;;;4.50;99.90;;;;;;5015287;28;20037;-76
2022/04/09 00:14:41;;;;;;;7.50;2.30;;;4.50;99.90;;;;;;4997646;28;20478;-78
2022/04/09 00:17:08;;;;;;;8.15;2.47;;;4.50;99.90;;;;;;5015636;28;20105;-77
2022/04/09 00:19:35;;;;;;;7.85;1.67;;;4.60;99.90;;;;;;5014863;28;20109;-78
2022/04/09 00:22:03;;;;;;;9.80;1.98;;;4.60;99.90;;;;;;4997114;28;20018;-77
2022/04/09 00:24:28;;;;;;;10.88;2.00;;;4.60;99.90;;;;;;4997216;28;20025;-78
2022/04/09 00:26:54;;;;;;;11.23;2.42;;;4.50;99.90;;;;;;5015209;28;20041;-79
2022/04/09 00:29:19;;;;;;;6.03;2.03;;;4.40;99.90;;;;;;5014479;28;20030;-77
2022/04/09 00:31:45;;;;;;;9.20;2.45;;;4.40;99.90;;;;;;4996974;28;20073;-78
2022/04/09 00:34:10;;;;;;;8.85;2.25;;;4.40;99.90;;;;;;5014727;28;20111;-78
2022/04/09 00:36:36;;;;;;;7.53;2.15;;;4.40;99.90;;;;;;5014960;28;20037;-77
2022/04/09 00:39:02;;;;;;;6.40;1.92;;;4.40;99.90;;;;;;5014201;28;20034;-79
2022/04/09 00:41:27;;;;;;;16.25;4.32;;;4.40;99.90;;;;;;4996824;28;20080;-79
2022/04/09 00:43:53;;;;;;;8.48;2.20;;;4.40;99.90;;;;;;5014643;28;20026;-79
2022/04/09 00:46:19;;;;;;;8.55;2.30;;;4.40;99.90;;;;;;4996300;28;20049;-75
2022/04/09 00:48:45;;;;;;;9.63;2.50;;;4.40;99.90;;;;;;5013572;28;20022;-77
2022/04/09 00:51:11;;;;;;;13.25;2.25;;;4.30;99.90;;;;;;4996048;28;20397;-78
2022/04/09 00:53:41;;;;;;;14.95;3.40;;;4.30;99.90;;;;;;5014220;28;20079;-79
2022/04/09 00:56:20;;;;;;;21.77;7.47;;;4.20;99.90;;;;;;5016098;28;20021;-78
2022/04/09 00:58:57;;;;;;;15.52;3.85;;;4.10;99.90;;;;;;5013098;28;20049;-77
2022/04/09 01:01:32;;;;;;;17.88;3.85;;;4.00;99.90;;;;;;5013992;28;20103;-76
2022/04/09 01:03:59;;;;;;;10.88;3.08;;;4.10;99.90;;;;;;5013576;28;20022;-77
2022/04/09 01:06:24;;;;;;;10.90;3.28;;;4.10;99.90;;;;;;5013656;28;20127;-78
2022/04/09 01:08:50;;;;;;;16.42;3.13;;;4.20;99.90;;;;;;4995453;28;20025;-77
2022/04/09 01:11:16;;;;;;;17.00;3.35;;;4.20;99.90;;;;;;5013495;28;20044;-77
2022/04/09 01:13:43;;;;;;;15.98;4.03;;;4.30;99.90;;;;;;4996314;28;20025;-78
2022/04/09 01:16:09;;;;;;;14.15;3.20;;;4.30;99.90;;;;;;5017800;28;20025;-76
2022/04/09 01:18:36;;;;;;;19.35;3.67;;;4.40;99.90;;;;;;5016855;28;20035;-78
2022/04/09 01:21:03;;;;;;;23.88;6.00;;;4.50;99.90;;;;;;5015881;28;20026;-77
2022/04/09 01:23:31;;;;;;;16.38;3.85;;;4.60;99.90;;;;;;5015479;28;20025;-78
2022/04/09 01:25:58;;;;;;;11.93;3.10;;;4.60;99.90;;;;;;5016094;28;20405;-79
2022/04/09 01:28:25;;;;;;;12.02;3.67;;;4.60;99.90;;;;;;5015923;28;20025;-80
2022/04/09 01:30:51;;;;;;;11.35;3.38;;;4.60;99.90;;;;;;4998230;28;20030;-78
2022/04/09 01:33:18;;;;;;;15.63;3.38;;;4.60;99.90;;;;;;5015158;28;20030;-78
2022/04/09 01:35:44;;;;;;;15.73;3.67;;;4.60;99.90;;;;;;4996413;28;20068;-80
2022/04/09 01:38:10;;;;;;;13.50;3.47;;;4.60;99.90;;;;;;4997146;28;20029;-79
2022/04/09 01:40:36;;;;;;;15.85;3.33;;;4.50;99.90;;;;;;5014490;28;20117;-78
2022/04/09 01:43:01;;;;;;;15.20;4.53;;;4.50;99.90;;;;;;4997337;28;20061;-80
2022/04/09 01:45:28;;;;;;;22.80;4.60;;;4.50;99.90;;;;;;5014152;28;20064;-78
2022/04/09 01:47:54;;;;;;;12.18;3.60;;;4.60;99.90;;;;;;5014201;28;20037;-78
2022/04/09 01:50:21;;;;;;;14.68;3.30;;;4.60;99.90;;;;;;4996028;28;20680;-79
2022/04/09 01:52:47;;;;;;;13.50;4.00;;;4.60;99.90;;;;;;5014004;28;20037;-76
2022/04/09 01:55:12;;;;;;;14.73;3.70;;;4.60;99.90;;;;;;4995479;28;20026;-79
2022/04/09 01:57:39;;;;;;;14.88;3.53;;;4.60;99.90;;;;;;5013656;28;20120;-77
2022/04/09 02:00:08;;;;;;;20.52;3.10;;;4.60;99.90;;;;;;5013115;28;20507;-77
2022/04/09 02:02:33;;;;;;;11.30;3.15;;;4.60;99.90;;;;;;4996206;28;20022;-77
2022/04/09 02:04:59;;;;;;;11.63;3.28;;;4.60;99.90;;;;;;4996341;28;20037;-76
2022/04/09 02:07:26;;;;;;;12.52;3.30;;;4.50;99.90;;;;;;5013607;28;20025;-78
2022/04/09 02:09:52;;;;;;;11.52;3.47;;;4.60;99.90;;;;;;5013683;28;20029;-78
2022/04/09 02:12:17;;;;;;;14.93;3.60;;;4.60;99.90;;;;;;4996495;28;20442;-79
2022/04/09 02:14:44;;;;;;;19.40;4.00;;;4.60;99.90;;;;;;5013944;28;20058;-79
2022/04/09 02:17:11;;;;;;;15.68;3.75;;;4.70;99.90;;;;;;5013835;28;20448;-79
2022/04/09 02:19:38;;;;;;;15.52;4.15;;;4.60;99.90;;;;;;5013507;28;20029;-78
2022/04/09 02:22:04;;;;;;;13.05;4.28;;;4.60;99.90;;;;;;4995846;28;20025;-79
2022/04/09 02:24:30;;;;;;;10.77;3.00;;;4.60;99.90;;;;;;5014338;28;20026;-79
2022/04/09 02:26:55;;;;;;;18.65;4.28;;;4.70;99.90;;;;;;5036660;23;20053;-84
2022/04/09 02:29:21;;;;;;;17.88;4.45;;;4.70;99.90;;;;;;5040262;28;20497;-84
2022/04/09 02:31:46;;;;;;;16.38;4.47;;;4.60;99.90;;;;;;5023772;28;20032;-83
2022/04/09 02:34:12;;;;;;;19.42;4.20;;;4.70;99.90;;;;;;5043387;28;20537;-83
2022/04/09 02:36:38;;;;;;;20.40;4.47;;;4.60;99.90;;;;;;5044108;28;20094;-81
2022/04/09 02:39:04;;;;;;;20.40;5.82;;;4.60;99.90;;;;;;5044472;28;20528;-85
2022/04/09 02:41:30;;;;;;;16.20;4.30;;;4.60;99.90;;;;;;5046863;28;20025;-82
2022/04/09 02:43:57;;;;;;;22.08;4.72;;;4.60;99.90;;;;;;5031140;28;20025;-82
2022/04/09 02:46:23;;;;;;;15.45;3.92;;;4.70;99.90;;;;;;5044894;28;20406;-83
2022/04/09 02:48:49;;;;;;;19.17;4.28;;;4.70;99.90;;;;;;5026807;28;20026;-83
2022/04/09 02:51:14;;;;;;;12.90;3.50;;;4.70;99.90;;;;;;5026666;28;20084;-81
2022/04/09 02:53:40;;;;;;;14.15;4.35;;;4.70;99.90;;;;;;5044477;28;20090;-84
2022/04/09 02:56:05;;;;;;;18.42;4.13;;;4.60;99.90;;;;;;5045971;28;20037;-84
2022/04/09 02:58:31;;;;;;;19.83;4.60;;;4.60;99.90;;;;;;5027875;28;20033;-83
2022/04/09 03:00:57;;;;;;;16.55;3.58;;;4.60;99.90;;;;;;5047763;28;20457;-83
2022/04/09 03:03:22;;;;;;;23.98;4.63;;;4.60;99.90;;;;;;5031354;28;20029;-84
2022/04/09 03:05:48;;;;;;;19.83;4.18;;;4.60;99.90;;;;;;5032804;28;20029;-83
2022/04/09 03:08:14;;;;;;;18.73;3.60;;;4.60;99.90;;;;;;5028922;28;20437;-83
2022/04/09 03:10:39;;;;;;;10.82;3.50;;;4.60;99.90;;;;;;5037255;28;20029;-83
2022/04/09 03:13:05;;;;;;;14.60;3.72;;;4.60;99.90;;;;;;5037077;28;20381;-81
2022/04/09 03:15:31;;;;;;;18.33;3.72;;;4.70;99.90;;;;;;5036455;28;20022;-81
2022/04/09 03:17:57;;;;;;;14.95;3.17;;;4.70;99.90;;;;;;5036154;28;20034;-82
2022/04/09 03:20:22;;;;;;;15.68;3.80;;;4.70;99.90;;;;;;5018172;28;20022;-83
2022/04/09 03:22:49;;;;;;;16.20;3.55;;;4.70;99.90;;;;;;5018001;28;20128;-81
2022/04/09 03:25:15;;;;;;;24.48;3.95;;;4.70;99.90;;;;;;5017585;28;20385;-83
2022/04/09 03:27:41;;;;;;;12.50;3.90;;;4.70;99.90;;;;;;5018691;28;20029;-82
2022/04/09 03:30:08;;;;;;;15.02;3.67;;;4.70;99.90;;;;;;5019892;28;20053;-82
2022/04/09 03:32:39;;;;;;;13.63;3.50;;;4.70;99.90;;;;;;5037411;28;20380;-83
2022/04/09 03:35:06;;;;;;;23.67;4.15;;;4.60;99.90;;;;;;5037507;28;20353;-84
2022/04/09 03:37:35;;;;;;;13.65;3.20;;;4.60;99.90;;;;;;5020369;28;20093;-84
2022/04/09 03:40:02;;;;;;;15.68;3.90;;;4.60;99.90;;;;;;5020865;28;20370;-82
2022/04/09 03:42:28;;;;;;;12.57;3.20;;;4.70;99.90;;;;;;5020820;28;20116;-82
2022/04/09 03:44:53;;;;;;;15.05;3.80;;;4.70;99.90;;;;;;5039494;28;20103;-84
2022/04/09 03:47:19;;;;;;;16.60;4.60;;;4.70;99.90;;;;;;5042500;28;20026;-83
2022/04/09 03:49:44;;;;;;;14.60;2.90;;;4.70;99.90;;;;;;5026644;28;20029;-83
2022/04/09 03:52:10;;;;;;;10.65;2.88;;;4.70;99.90;;;;;;5026947;28;20018;-83
2022/04/09 03:54:38;;;;;;;22.45;4.45;;;4.70;99.90;;;;;;5044785;28;20113;-83
2022/04/09 03:57:04;;;;;;;16.20;3.80;;;4.70;99.90;;;;;;5048003;28;20092;-85
2022/04/09 03:59:29;;;;;;;14.30;3.58;;;4.70;99.90;;;;;;5031653;28;20026;-84
2022/04/09 04:01:55;;;;;;;14.38;3.53;;;4.70;99.90;;;;;;5044524;28;20018;-84
2022/04/09 04:04:21;;;;;;;16.98;4.15;;;4.70;99.90;;;;;;5020549;28;20018;-82
2022/04/09 04:06:48;;;;;;;14.40;3.80;;;4.70;99.90;;;;;;5037945;28;20048;-81
2022/04/09 04:09:16;;;;;;;16.23;3.55;;;4.70;99.90;;;;;;5019110;28;20029;-81
2022/04/09 04:11:42;;;;;;;16.25;4.10;;;4.80;99.90;;;;;;5036801;28;20021;-82
2022/04/09 04:14:08;;;;;;;13.20;2.78;;;4.80;99.90;;;;;;5018286;28;20164;-84
2022/04/09 04:16:34;;;;;;;9.48;2.83;;;4.80;99.90;;;;;;5035699;28;20076;-84
2022/04/09 04:18:59;;;;;;;16.42;3.33;;;4.80;99.90;;;;;;5034928;28;20082;-84
2022/04/09 04:21:25;;;;;;;19.20;3.85;;;4.70;99.90;;;;;;5017537;28;20477;-84
2022/04/09 04:23:50;;;;;;;17.70;3.40;;;4.70;99.90;;;;;;5042526;28;20053;-84
2022/04/09 04:26:16;;;;;;;16.83;3.40;;;4.70;99.90;;;;;;5052407;28;20048;-84
2022/04/09 04:28:41;;;;;;;17.10;3.60;;;4.50;99.90;;;;;;5036606;28;20102;-83
2022/04/09 04:31:07;;;;;;;21.38;4.00;;;4.50;99.90;;;;;;5036078;28;20033;-80
2022/04/09 04:33:33;;;;;;;16.23;3.35;;;4.30;99.90;;;;;;5039538;28;20026;-82
2022/04/09 04:35:58;;;;;;;18.13;4.03;;;4.30;99.90;;;;;;5018684;28;20021;-83
2022/04/09 04:38:24;;;;;;;13.35;3.88;;;4.30;99.90;;;;;;5017727;28;20050;-81
2022/04/09 04:40:51;;;;;;;14.27;3.50;;;4.30;99.90;;;;;;5036271;28;20037;-80
2022/04/09 04:43:16;;;;;;;21.30;4.85;;;4.30;99.90;;;;;;5036549;28;20036;-82
2022/04/09 04:45:42;;;;;;;13.32;4.15;;;4.20;99.90;;;;;;5035960;28;20112;-81
2022/04/09 04:48:08;;;;;;;14.75;3.25;;;4.10;99.90;;;;;;5035773;28;20068;-80
2022/04/09 04:50:37;;;;;;;19.17;4.75;;;4.00;99.90;;;;;;5019518;28;20022;-81
2022/04/09 04:53:03;;;;;;;18.30;3.95;;;3.90;99.90;;;;;;5037053;28;20025;-81
2022/04/09 04:55:28;;;;;;;19.92;4.15;;;3.80;99.90;;;;;;5037135;28;20033;-81
2022/04/09 04:57:55;;;;;;;22.20;4.38;;;3.70;99.90;;;;;;5036877;28;20101;-81
2022/04/09 05:00:22;;;;;;;14.98;3.55;;;3.70;99.90;;;;;;5036909;28;20021;-83
2022/04/09 05:02:51;;;;;;;14.63;3.95;;;3.70;99.90;;;;;;5019502;28;20076;-82
2022/04/09 05:05:17;;;;;;;17.77;3.47;;;3.70;99.90;;;;;;5035832;28;20025;-82
2022/04/09 05:07:47;;;;;;;16.95;3.53;;;3.70;99.90;;;;;;5020135;28;20033;-80
2022/04/09 05:10:18;;;;;;;13.30;4.35;;;3.80;99.90;;;;;;5038339;28;20029;-83
2022/04/09 05:12:44;;;;;;;10.70;3.42;;;3.90;99.90;;;;;;5037277;28;20026;-82
2022/04/09 05:15:13;;;;;;;18.55;3.88;;;3.90;99.90;;;;;;5036709;28;20096;-81
2022/04/09 05:17:38;;;;;;;18.50;3.85;;;4.00;99.90;;;;;;5036099;28;20504;-82
2022/04/09 05:20:06;;;;;;;20.90;3.92;;;4.00;99.90;;;;;;5036092;28;20025;-81
2022/04/09 05:22:32;;;;;;;17.13;3.85;;;4.10;99.90;;;;;;5036145;28;20026;-82
2022/04/09 05:24:58;;;;;;;15.07;4.28;;;4.10;99.90;;;;;;5036153;28;20036;-82
2022/04/09 05:27:25;;;;;;;10.73;3.35;;;4.10;99.90;;;;;;5017114;28;20034;-82
2022/04/09 05:29:51;;;;;;;14.23;3.25;;;4.20;99.90;;;;;;5017434;28;20030;-82
2022/04/09 05:32:17;;;;;;;14.98;3.35;;;4.20;99.90;;;;;;5017846;28;20028;-84
2022/04/09 05:34:43;;;;;;;18.17;3.38;;;4.20;99.90;;;;;;5034530;28;20025;-80
2022/04/09 05:37:10;;;;;;;17.52;3.92;;;4.20;99.90;;;;;;5037736;28;20104;-84
2022/04/09 05:39:36;;;;;;;17.48;4.43;;;4.30;99.90;;;;;;5044506;28;20458;-82
2022/04/09 05:42:01;;;;;;;14.05;3.80;;;4.30;99.90;;;;;;5044495;28;20022;-83
2022/04/09 05:44:27;;;;;;;16.05;2.95;;;4.30;99.90;;;;;;5045403;28;20025;-81
2022/04/09 05:46:53;;;;;;;16.25;4.28;;;4.40;99.90;;;;;;5029893;28;20087;-84
2022/04/09 05:49:20;;;;;;;14.13;3.33;;;4.50;99.90;;;;;;5030725;28;20028;-85
2022/04/09 05:51:47;;;;;;;15.00;3.40;;;4.70;99.90;;;;;;5026720;28;20025;-83
2022/04/09 05:54:13;;;;;;;16.33;3.20;;;4.80;99.90;;;;;;5025545;28;20027;-82
2022/04/09 05:56:38;;;;;;;12.60;3.72;;;5.00;99.90;;;;;;5026257;28;20089;-83
2022/04/09 05:59:04;;;;;;;12.98;3.70;;;5.00;99.90;;;;;;5043641;28;20036;-84
2022/04/09 06:01:29;;;;;;;16.58;3.67;;;5.00;99.90;;;;;;5051845;28;20041;-80
2022/04/09 06:03:55;;;;;;;17.10;3.42;;;4.90;99.90;;;;;;5025747;28;20124;-83
2022/04/09 06:06:22;;;;;;;10.38;3.47;;;4.90;99.90;;;;;;5037833;28;20028;-82
2022/04/09 06:08:48;;;;;;;17.58;3.33;;;4.80;99.90;;;;;;5019115;28;20047;-84
2022/04/09 06:11:17;;;;;;;13.35;3.60;;;4.80;99.90;;;;;;5019857;28;20124;-81
2022/04/09 06:13:42;;;;;;;14.50;3.67;;;4.90;99.90;;;;;;5019998;28;20116;-81
2022/04/09 06:16:09;;;;;;;17.90;4.28;;;5.00;99.90;;;;;;5038236;28;20061;-82
2022/04/09 06:18:38;;;;;;;18.33;4.70;;;5.10;99.90;;;;;;5040821;28;20026;-83
2022/04/09 06:21:08;;;;;;;19.90;4.95;;;5.10;99.90;;;;;;5042013;28;20029;-83
2022/04/09 06:23:34;;;;;;;27.48;6.38;;;5.20;99.90;;;;;;5042387;28;20029;-83
2022/04/09 06:25:59;;;;;;;16.25;3.67;;;5.20;99.90;;;;;;5023821;28;20025;-81
2022/04/09 06:28:25;;;;;;;16.52;4.55;;;5.20;99.90;;;;;;5024128;28;20025;-79
2022/04/09 06:30:52;;;;;;;19.70;4.78;;;5.20;99.90;;;;;;5024115;28;20450;-81
2022/04/09 06:33:17;;;;;;;20.77;4.05;;;5.20;99.90;;;;;;5024085;28;20482;-83
2022/04/09 06:35:43;;;;;;;12.20;3.30;;;5.20;99.90;;;;;;5026964;28;20025;-84
2022/04/09 06:38:09;;;;;;;21.63;5.60;;;5.20;99.90;;;;;;5045134;28;20034;-81
2022/04/09 06:40:35;;;;;;;19.52;3.67;;;5.20;99.90;;;;;;5042700;28;20030;-82
2022/04/09 06:43:00;;;;;;;18.77;3.88;;;5.10;99.90;;;;;;5042495;28;20147;-81
2022/04/09 06:45:26;;;;;;;18.42;4.00;;;5.30;99.90;;;;;;5040670;28;20037;-84
2022/04/09 06:47:52;;;;;;;20.23;5.95;;;5.40;99.90;;;;;;5040705;28;20029;-82
2022/04/09 06:50:18;;;;;;;12.73;4.93;;;5.80;99.90;;;;;;5023543;28;20025;-81
2022/04/09 06:52:44;;;;;;;9.25;2.95;;;6.10;99.90;;;;;;5024180;28;20025;-83
2022/04/09 06:55:10;;;;;;;13.05;3.38;;;6.20;99.90;;;;;;5040907;28;20018;-82
2022/04/09 06:57:38;;;;;;;16.73;3.15;;;6.40;99.90;;;;;;5021950;28;20089;-82
2022/04/09 07:00:06;;;;;;;12.43;2.78;;;6.60;99.90;;;;;;5023060;28;20378;-83
2022/04/09 07:02:32;;;;;;;16.33;2.88;;;6.40;99.90;;;;;;5041613;28;20024;-82
2022/04/09 07:04:58;;;;;;;14.98;3.72;;;6.30;99.90;;;;;;5022267;28;20087;-81
2022/04/09 07:07:26;;;;;;;16.90;3.00;;;6.20;99.90;;;;;;5022809;28;20112;-82
2022/04/09 07:09:55;;;;;;;14.20;3.67;;;6.30;99.90;;;;;;5040337;28;20022;-80
2022/04/09 07:12:22;;;;;;;16.20;3.42;;;6.30;99.90;;;;;;5040197;28;20022;-83
2022/04/09 07:14:48;;;;;;;12.93;3.13;;;6.30;99.90;;;;;;5040688;28;20540;-81
2022/04/09 07:17:24;;;;;;;17.20;3.80;;;6.30;99.90;;;;;;5022865;28;20068;-79
2022/04/09 07:19:50;;;;;;;10.38;2.78;;;6.30;99.90;;;;;;5021611;28;20405;-80
2022/04/09 07:22:17;;;;;;;10.85;2.97;;;6.60;99.90;;;;;;5039914;28;20052;-82
2022/04/09 07:24:42;;;;;;;17.40;3.80;;;6.60;99.90;;;;;;5039129;28;20033;-82
2022/04/09 07:27:08;;;;;;;7.97;2.65;;;6.70;99.90;;;;;;5039481;28;20097;-82
2022/04/09 07:29:34;;;;;;;12.70;2.88;;;6.90;99.90;;;;;;5020960;28;20082;-82
2022/04/09 07:31:59;;;;;;;12.80;3.13;;;7.00;99.90;;;;;;5038208;28;20025;-82
2022/04/09 07:34:25;;;;;;;16.48;3.67;;;6.90;99.90;;;;;;5020716;28;20474;-82
2022/04/09 07:36:50;;;;;;;13.98;4.03;;;6.90;99.90;;;;;;5038265;28;20029;-82
2022/04/09 07:39:17;;;;;;;9.15;2.92;;;6.90;99.90;;;;;;5037813;28;20036;-82
2022/04/09 07:41:42;;;;;;;12.88;3.53;;;6.90;99.90;;;;;;5039212;28;20040;-82
2022/04/09 07:44:08;;;;;;;14.02;3.78;;;6.70;99.90;;;;;;5019501;28;20048;-82
2022/04/09 07:46:34;;;;;;;12.00;3.22;;;6.70;99.90;;;;;;5020059;28;20087;-84
2022/04/09 07:49:00;;;;;;;15.13;3.83;;;6.60;99.90;;;;;;5020494;28;20075;-82
2022/04/09 07:51:25;;;;;;;18.05;3.28;;;6.60;99.90;;;;;;5021945;28;20026;-82
2022/04/09 07:53:51;;;;;;;22.85;5.25;;;6.60;99.90;;;;;;5020403;28;20025;-84
2022/04/09 07:56:16;;;;;;;9.95;2.88;;;6.70;99.90;;;;;;5036990;28;20477;-82
2022/04/09 07:58:43;;;;;;;9.80;2.28;;;6.80;99.90;;;;;;5017972;28;20389;-82
2022/04/09 08:01:09;;;;;;;13.52;2.17;;;6.80;99.90;;;;;;5039934;28;20101;-85
2022/04/09 08:03:34;;;;;;;11.15;2.53;;;6.80;99.90;;;;;;5055604;28;20029;-83
2022/04/09 08:06:00;;;;;;;13.32;2.28;;;7.00;99.90;;;;;;5042960;28;20053;-84
2022/04/09 08:08:25;;;;;;;12.30;2.47;;;7.40;99.90;;;;;;5024445;28;20025;-81
2022/04/09 08:10:51;;;;;;;9.05;2.20;;;7.30;99.90;;;;;;5025975;28;20034;-84
2022/04/09 08:13:18;;;;;;;8.05;2.00;;;7.50;99.90;;;;;;5024697;28;20036;-85
2022/04/09 08:15:44;;;;;;;10.80;2.45;;;7.80;99.90;;;;;;5041213;28;20043;-81
2022/04/09 08:18:11;;;;;;;7.88;2.00;;;7.90;99.90;;;;;;5041636;28;20432;-82
2022/04/09 08:20:37;;;;;;;10.60;1.80;;;8.40;99.90;;;;;;5026038;28;20021;-82
2022/04/09 08:23:03;;;;;;;11.88;2.70;;;8.60;99.90;;;;;;5045894;28;20018;-84
2022/04/09 08:25:29;;;;;;;10.27;2.53;;;8.50;99.90;;;;;;5023533;28;20021;-83
2022/04/09 08:27:55;;;;;;;13.10;3.38;;;8.40;99.90;;;;;;5019942;28;20037;-83
2022/04/09 08:30:22;;;;;;;12.82;2.42;;;8.20;99.90;;;;;;5019223;28;20120;-82
2022/04/09 08:32:52;;;;;;;7.88;2.50;;;8.30;99.90;;;;;;5018440;28;20453;-81
2022/04/09 08:35:18;;;;;;;7.80;2.42;;;8.10;99.90;;;;;;5035953;28;20049;-82
2022/04/09 08:37:51;;;;;;;14.63;4.75;;;8.30;99.90;;;;;;5017836;28;20548;-81
2022/04/09 08:40:18;;;;;;;7.63;2.55;;;8.20;99.90;;;;;;5018558;28;20026;-81
2022/04/09 08:42:43;;;;;;;12.68;6.05;;;8.10;99.90;;;;;;5018863;28;20022;-80
2022/04/09 08:45:09;;;;;;;15.88;4.10;;;8.10;99.90;;;;;;5018591;28;20117;-82
2022/04/09 08:47:35;;;;;;;11.63;2.88;;;8.20;99.90;;;;;;5036663;28;20026;-83
2022/04/09 08:50:02;;;;;;;14.90;4.43;;;8.70;99.90;;;;;;5037134;28;20096;-83
2022/04/09 08:52:28;;;;;;;18.88;3.15;;;9.00;99.90;;;;;;5020164;28;20508;-79
2022/04/09 08:54:56;;;;;;;12.88;2.63;;;8.70;99.90;;;;;;5035679;28;20033;-80
2022/04/09 08:57:22;;;;;;;12.27;3.88;;;8.40;99.90;;;;;;5017492;28;20025;-81
2022/04/09 08:59:48;;;;;;;12.27;3.75;;;8.20;99.90;;;;;;5018335;28;20087;-81
2022/04/09 09:02:14;;;;;;;13.68;3.42;;;8.00;99.90;;;;;;5036521;28;20026;-82
2022/04/09 09:04:43;;;;;;;12.48;3.75;;;8.00;99.90;;;;;;5018304;28;20087;-81
2022/04/09 09:07:22;;;;;;;8.38;2.92;;;8.60;99.90;;;;;;5018363;28;20026;-81
2022/04/09 09:09:52;;;;;;;9.90;3.35;;;9.70;99.90;;;;;;5018465;28;20025;-81
2022/04/09 09:12:28;;;;;;;10.57;3.75;;;10.00;99.90;;;;;;5036346;28;20087;-81
2022/04/09 09:14:55;;;;;;;9.70;3.00;;;10.30;99.90;;;;;;5035914;28;20052;-82
2022/04/09 09:17:31;;;;;;;9.90;2.78;;;10.50;99.90;;;;;;5019272;28;20102;-81
2022/04/09 09:19:58;;;;;;;7.30;3.08;;;10.50;99.90;;;;;;5018518;28;20052;-83
2022/04/09 09:22:42;;;;;;;10.45;2.80;;;9.90;99.90;;;;;;5025697;28;20025;-81
2022/04/09 09:25:09;;;;;;;10.30;2.97;;;9.70;99.90;;;;;;5033526;28;20044;-83
2022/04/09 09:27:36;;;;;;;8.60;2.55;;;9.20;99.90;;;;;;5030830;28;20029;-79
2022/04/09 09:30:09;;;;;;;9.82;2.15;;;9.00;99.90;;;;;;5039135;28;20029;-80
2022/04/09 09:32:35;;;;;;;5.95;2.10;;;8.90;99.90;;;;;;5037957;28;20037;-80
2022/04/09 09:35:01;;;;;;;10.65;2.30;;;9.00;99.90;;;;;;5018898;28;20017;-81
2022/04/09 09:37:31;;;;;;;13.48;2.53;;;9.30;99.90;;;;;;5017524;28;20033;-80
2022/04/09 09:39:57;;;;;;;12.20;2.88;;;9.50;99.90;;;;;;5017040;28;20516;-81
2022/04/09 09:42:28;;;;;;;10.88;1.98;;;9.90;99.90;;;;;;5016564;28;20099;-80
2022/04/09 09:44:54;;;;;;;15.23;2.42;;;9.90;99.90;;;;;;5016181;28;20493;-80
2022/04/09 09:47:20;;;;;;;8.45;2.40;;;9.70;99.90;;;;;;5034245;28;20025;-81
2022/04/09 09:49:47;;;;;;;9.07;2.00;;;9.60;99.90;;;;;;5016939;28;20021;-83
2022/04/09 09:52:14;;;;;;;11.73;3.00;;;9.80;99.90;;;;;;5034163;28;20104;-81
2022/04/09 09:54:58;;;;;;;14.05;4.35;;;10.30;99.90;;;;;;5034623;28;20032;-83
2022/04/09 09:57:26;;;;;;;10.18;3.72;;;9.80;99.90;;;;;;5035361;28;20029;-82
2022/04/09 09:59:55;;;;;;;3.80;1.08;;;8.40;99.90;;;;;;5034850;28;20026;-83
2022/04/09 10:02:22;;;;;;;3.15;1.15;;;6.80;99.90;;;;;;5035211;28;20073;-83
2022/04/09 10:04:51;;;;;;;6.38;1.55;;;6.10;99.90;;;;;;5028484;28;20026;-84
2022/04/09 10:07:18;;;;;;;2.53;1.13;;;5.60;99.90;;;;;;5018537;28;20036;-80
2022/04/09 10:09:44;;;;;;;5.22;2.55;;;5.60;99.90;;;;;;5034016;28;20025;-80
2022/04/09 10:12:18;;;;;;;6.97;3.28;;;5.60;99.90;;;;;;5033967;28;20025;-82
2022/04/09 10:14:47;;;;;;;4.20;1.92;;;5.70;99.90;;;;;;5034785;28;20021;-81
2022/04/09 10:17:17;;;;;;;3.38;1.20;;;5.90;99.90;;;;;;5016472;28;20106;-83
2022/04/09 10:19:44;;;;;;;2.03;0.82;;;6.20;99.90;;;;;;5016850;28;20037;-81
2022/04/09 10:22:11;;;;;;;4.97;1.38;;;6.90;99.90;;;;;;5035522;28;20018;-81
2022/04/09 10:24:39;;;;;;;5.32;1.08;;;7.60;99.90;;;;;;5017358;28;20033;-81
2022/04/09 10:27:08;;;;;;;2.38;0.88;;;8.40;99.90;;;;;;5035805;28;20473;-80
2022/04/09 10:29:50;;;;;;;3.47;1.10;;;9.00;99.90;;;;;;5035430;28;20046;-81
2022/04/09 10:32:44;;;;;;;1.80;0.70;;;9.40;99.90;;;;;;5035097;28;20496;-79
2022/04/09 10:35:41;;;;;;;4.68;1.33;;;9.70;99.90;;;;;;5017352;28;20085;-80
2022/04/09 10:38:07;;;;;;;4.47;1.20;;;9.80;99.90;;;;;;5016400;28;20029;-83
2022/04/09 10:40:55;;;;;;;6.65;1.55;;;10.10;99.90;;;;;;5016735;28;20025;-81
2022/04/09 10:43:23;;;;;;;3.13;0.80;;;10.30;99.90;;;;;;4995794;28;20033;-81
2022/04/09 10:46:05;;;;;;;6.68;1.33;;;9.90;99.90;;;;;;5040833;23;20047;-78
2022/04/09 10:48:38;;;;;;;5.07;1.40;;;10.00;99.90;;;;;;5058131;28;20361;-81
2022/04/09 10:51:12;;;;;;;3.58;1.20;;;10.60;99.90;;;;;;5055920;28;20025;-79
2022/04/09 10:53:40;;;;;;;5.95;1.80;;;11.00;99.90;;;;;;5039003;28;20021;-80
2022/04/09 10:56:21;;;;;;;7.90;1.77;;;11.10;99.90;;;;;;5055685;28;20029;-82
2022/04/09 10:59:16;;;;;;;4.22;0.77;;;11.10;99.90;;;;;;5045156;28;20051;-81
2022/04/09 11:04:29;;;;;;;5.22;0.60;;;8.30;99.90;;;;;;5066618;28;20059;-79
2022/04/09 11:07:13;;;;;;;2.35;0.30;;;6.60;99.90;;;;;;5066666;28;20017;-81
2022/04/09 11:09:56;;;;;;;0.85;0.20;;;6.10;99.90;;;;;;5038745;28;20029;-82
2022/04/09 11:12:42;;;;;;;0.22;0.10;;;5.90;99.90;;;;;;5057072;28;20079;-79
2022/04/09 11:15:15;;;;;;;1.15;0.55;;;5.80;99.90;;;;;;5056519;28;20501;-80
2022/04/09 11:17:43;;;;;;;0.52;0.30;;;5.70;99.90;;;;;;5039923;28;20503;-81
2022/04/09 11:20:13;;;;;;;2.60;0.60;;;5.60;99.90;;;;;;5057425;28;20021;-78
2022/04/09 11:22:51;;;;;;;2.13;0.50;;;5.70;99.90;;;;;;5057418;28;20551;-82
2022/04/09 11:25:25;;;;;;;1.35;0.40;;;5.60;99.90;;;;;;5056434;28;20451;-82
2022/04/09 11:27:51;;;;;;;1.40;0.60;;;5.50;99.90;;;;;;5039042;28;20017;-82
2022/04/09 11:30:18;;;;;;;1.08;0.70;;;5.50;99.90;;;;;;5057910;28;20476;-80
2022/04/09 11:32:46;;;;;;;2.50;0.75;;;5.60;99.90;;;;;;5038490;28;20097;-81
2022/04/09 11:35:11;;;;;;;1.90;0.70;;;5.60;99.90;;;;;;5038545;28;20108;-81
2022/04/09 11:37:42;;;;;;;3.22;0.82;;;5.50;99.90;;;;;;5058132;28;20079;-81
2022/04/09 11:40:10;;;;;;;3.45;1.02;;;5.30;99.90;;;;;;5041903;28;20083;-84
2022/04/09 11:42:53;;;;;;;2.75;0.70;;;5.10;99.90;;;;;;5042912;28;20021;-82
2022/04/09 11:45:27;;;;;;;5.28;0.70;;;5.10;99.90;;;;;;5043048;28;20029;-83
2022/04/09 11:47:58;;;;;;;2.53;1.00;;;5.10;99.90;;;;;;5041146;28;20021;-81
2022/04/09 11:50:41;;;;;;;2.20;0.68;;;4.90;99.90;;;;;;5042319;28;20021;-80
2022/04/09 11:53:20;;;;;;;0.47;0.40;;;4.90;99.90;;;;;;5060192;28;20568;-81
2022/04/09 11:55:47;;;;;;;2.00;0.43;;;4.90;99.90;;;;;;5040945;28;20082;-82
2022/04/09 11:58:18;;;;;;;1.58;0.57;;;4.80;99.90;;;;;;5059456;28;20069;-82
2022/04/09 12:00:45;;;;;;;1.33;0.43;;;4.80;99.90;;;;;;5044548;28;20032;-81
2022/04/09 12:03:18;;;;;;;1.55;0.57;;;4.80;99.90;;;;;;5060298;28;20036;-81
2022/04/09 12:05:46;;;;;;;1.80;1.00;;;4.80;99.90;;;;;;5050778;28;20033;-83
2022/04/09 12:08:14;;;;;;;2.38;0.70;;;4.90;99.90;;;;;;5068655;28;20100;-82
2022/04/09 12:10:58;;;;;;;1.55;0.70;;;5.10;99.90;;;;;;5042564;28;20120;-79
2022/04/09 12:13:36;;;;;;;2.67;0.65;;;5.20;99.90;;;;;;5059592;28;20025;-79
2022/04/09 12:16:13;;;;;;;2.45;1.30;;;5.60;99.90;;;;;;5041004;28;20519;-81
2022/04/09 12:18:40;;;;;;;5.10;1.30;;;6.40;99.90;;;;;;5058161;28;20025;-80
2022/04/09 12:21:27;;;;;;;2.92;1.20;;;7.30;99.90;;;;;;5040193;28;20021;-79
2022/04/09 12:24:07;;;;;;;3.42;1.42;;;8.00;99.90;;;;;;5058042;28;20024;-80
2022/04/09 12:26:34;;;;;;;6.80;1.50;;;8.30;99.90;;;;;;5057686;28;20017;-78
2022/04/09 12:29:08;;;;;;;3.58;0.80;;;8.70;99.90;;;;;;5040039;28;20025;-78
2022/04/09 12:31:35;;;;;;;5.18;1.38;;;9.40;99.90;;;;;;5040175;28;20055;-78
2022/04/09 12:34:01;;;;;;;11.48;5.35;;;9.90;99.90;;;;;;5056543;28;20032;-79
2022/04/09 12:36:27;;;;;;;3.38;1.60;;;9.60;99.90;;;;;;5038558;28;20029;-78
2022/04/09 12:38:53;;;;;;;3.85;1.60;;;9.50;99.90;;;;;;5037569;28;20035;-78
2022/04/09 12:41:18;;;;;;;2.10;0.93;;;9.40;99.90;;;;;;5054863;28;20108;-79
2022/04/09 12:43:46;;;;;;;2.70;1.50;;;9.20;99.90;;;;;;5055280;28;20032;-78
2022/04/09 12:46:13;;;;;;;2.42;0.95;;;9.30;99.90;;;;;;5054497;28;20082;-78
2022/04/09 12:48:40;;;;;;;6.55;0.82;;;9.40;99.90;;;;;;5055843;28;20108;-79
2022/04/09 12:51:06;;;;;;;3.97;0.80;;;9.70;99.90;;;;;;5054370;28;20055;-80
2022/04/09 12:53:32;;;;;;;3.85;0.52;;;9.60;99.90;;;;;;5037291;28;20053;-78
2022/04/09 12:55:57;;;;;;;2.78;0.68;;;9.60;99.90;;;;;;5037612;28;20146;-81